createdAt,value
2023-05-19T00:02:12.814Z,1.60
2023-05-19T00:05:19.838Z,1.80
2023-05-19T00:08:25.694Z,1.23
2023-05-19T00:11:31.155Z,1.52
2023-05-19T00:14:34.759Z,1.60
2023-05-19T00:17:38.319Z,1.38
2023-05-19T00:20:42.620Z,1.70
2023-05-19T00:23:46.443Z,1.33
2023-05-19T00:26:51.542Z,1.20
2023-05-19T00:29:55.927Z,1.50
2023-05-19T00:32:59.418Z,1.60
2023-05-19T00:36:03.817Z,1.67
2023-05-19T00:39:08.720Z,1.42
2023-05-19T00:42:16.783Z,1.30
2023-05-19T00:45:20.892Z,1.40
2023-05-19T00:48:24.807Z,1.52
2023-05-19T00:51:31.432Z,1.50
2023-05-19T00:54:36.361Z,1.40
2023-05-19T00:57:41.410Z,1.83
2023-05-19T01:00:45.985Z,1.73
2023-05-19T01:03:50.413Z,1.60
2023-05-19T01:06:54.932Z,1.33
2023-05-19T01:09:59.439Z,1.83
2023-05-19T01:13:05.612Z,1.50
2023-05-19T01:16:13.790Z,1.20
2023-05-19T01:19:25.280Z,1.40
2023-05-19T01:22:35.541Z,1.55
2023-05-19T01:25:46.214Z,1.85
2023-05-19T01:29:11.338Z,1.50
2023-05-19T01:32:17.895Z,1.50
2023-05-19T01:35:23.837Z,2.08
2023-05-19T01:38:30.424Z,1.60
2023-05-19T01:41:34.702Z,1.70
2023-05-19T01:44:38.778Z,1.50
2023-05-19T01:47:45.710Z,1.50
2023-05-19T01:50:49.548Z,1.75
2023-05-19T01:53:53.124Z,2.00
2023-05-19T01:57:02.450Z,1.60
2023-05-19T02:00:10.084Z,2.00
2023-05-19T02:03:28.515Z,1.33
2023-05-19T02:06:35.040Z,1.60
2023-05-19T02:09:41.526Z,1.70
2023-05-19T02:12:49.747Z,1.85
2023-05-19T02:15:55.377Z,1.50
2023-05-19T02:19:00.839Z,1.92
2023-05-19T02:22:04.400Z,1.48
2023-05-19T02:25:08.774Z,1.73
2023-05-19T02:28:16.242Z,1.63
2023-05-19T02:31:20.558Z,2.03
2023-05-19T02:34:26.056Z,1.90
2023-05-19T02:37:31.050Z,1.60
2023-05-19T02:40:34.764Z,2.10
2023-05-19T02:43:38.407Z,1.65
2023-05-19T02:46:42.418Z,1.40
2023-05-19T02:49:48.196Z,2.08
2023-05-19T02:52:54.159Z,2.08
2023-05-19T02:55:58.101Z,1.77
2023-05-19T02:59:02.684Z,1.65
2023-05-19T03:02:08.830Z,1.58
2023-05-19T03:05:14.418Z,1.88
2023-05-19T03:08:18.226Z,1.52
2023-05-19T03:11:23.329Z,1.92
2023-05-19T03:14:27.369Z,1.33
2023-05-19T03:17:34.237Z,1.58
2023-05-19T03:20:41.665Z,1.45
2023-05-19T03:23:45.433Z,1.65
2023-05-19T03:26:49.066Z,1.73
2023-05-19T03:29:54.102Z,1.30
2023-05-19T03:33:01.518Z,1.67
2023-05-19T03:36:07.310Z,1.50
2023-05-19T03:39:14.489Z,2.10
2023-05-19T03:42:18.555Z,1.70
2023-05-19T03:45:23.850Z,1.48
2023-05-19T03:48:29.699Z,1.45
2023-05-19T03:51:56.383Z,1.65
2023-05-19T03:55:26.663Z,1.60
2023-05-19T03:58:30.493Z,2.33
2023-05-19T04:01:34.620Z,1.55
2023-05-19T04:04:38.749Z,1.50
2023-05-19T04:07:47.102Z,1.80
2023-05-19T04:10:53.637Z,1.83
2023-05-19T04:13:58.144Z,1.35
2023-05-19T04:17:01.994Z,1.48
2023-05-19T04:20:06.005Z,2.05
2023-05-19T04:23:13.100Z,1.50
2023-05-19T04:26:17.983Z,1.77
2023-05-19T04:29:26.931Z,1.70
2023-05-19T04:32:31.012Z,1.75
2023-05-19T04:35:35.114Z,1.83
2023-05-19T04:38:43.574Z,1.75
2023-05-19T04:41:48.904Z,1.75
2023-05-19T04:44:53.617Z,1.83
2023-05-19T04:48:00.470Z,1.60
2023-05-19T04:51:05.207Z,1.42
2023-05-19T04:54:10.899Z,2.00
2023-05-19T04:57:14.514Z,1.75
2023-05-19T05:00:18.958Z,2.00
2023-05-19T05:03:44.459Z,1.42
2023-05-19T05:06:49.024Z,1.77
2023-05-19T05:09:54.507Z,1.60
2023-05-19T05:12:58.540Z,1.85
2023-05-19T05:16:04.864Z,1.75
2023-05-19T05:19:09.121Z,1.63
2023-05-19T05:22:13.238Z,1.63
2023-05-19T05:25:20.537Z,1.42
2023-05-19T05:28:25.577Z,1.67
2023-05-19T05:31:30.113Z,1.40
2023-05-19T05:34:35.847Z,1.60
2023-05-19T05:37:39.410Z,1.65
2023-05-19T05:40:44.736Z,1.33
2023-05-19T05:43:53.566Z,1.33
2023-05-19T05:46:57.616Z,1.88
2023-05-19T05:50:05.051Z,1.58
2023-05-19T05:53:09.363Z,1.60
2023-05-19T05:56:19.364Z,1.40
2023-05-19T05:59:27.665Z,1.80
2023-05-19T06:02:31.635Z,1.58
2023-05-19T06:05:38.030Z,1.25
2023-05-19T06:08:41.938Z,1.35
2023-05-19T06:11:47.662Z,1.60
2023-05-19T06:14:52.338Z,1.38
2023-05-19T06:17:56.359Z,1.40
2023-05-19T06:21:00.511Z,1.67
2023-05-19T06:24:04.823Z,1.30
2023-05-19T06:27:10.945Z,1.23
2023-05-19T06:30:15.146Z,1.20
2023-05-19T06:33:33.429Z,1.33
2023-05-19T06:36:37.128Z,1.08
2023-05-19T06:39:41.686Z,1.08
2023-05-19T06:42:46.894Z,1.13
2023-05-19T06:45:54.367Z,1.40
2023-05-19T06:49:01.456Z,1.08
2023-05-19T06:52:11.056Z,1.02
2023-05-19T06:55:14.576Z,0.95
2023-05-19T06:58:20.730Z,1.13
2023-05-19T07:01:28.199Z,1.38
2023-05-19T07:04:36.244Z,1.33
2023-05-19T07:07:40.465Z,1.20
2023-05-19T07:10:49.268Z,1.00
2023-05-19T07:13:55.484Z,1.70
2023-05-19T07:17:04.104Z,1.50
2023-05-19T07:20:11.736Z,1.00
2023-05-19T07:23:17.337Z,0.88
2023-05-19T07:26:23.546Z,1.60
2023-05-19T07:29:33.629Z,1.45
2023-05-19T07:32:37.736Z,1.33
2023-05-19T07:35:41.780Z,1.05
2023-05-19T07:38:45.194Z,1.08
2023-05-19T07:41:52.947Z,1.35
2023-05-19T07:44:57.893Z,1.05
2023-05-19T07:48:01.564Z,1.20
2023-05-19T07:51:05.163Z,1.20
2023-05-19T07:54:18.465Z,1.13
2023-05-19T07:57:22.314Z,1.27
2023-05-19T08:00:32.453Z,1.20
2023-05-19T08:03:36.146Z,1.15
2023-05-19T08:06:40.128Z,1.08
2023-05-19T08:09:43.593Z,1.15
2023-05-19T08:13:01.400Z,0.88
2023-05-19T08:16:07.961Z,1.45
2023-05-19T08:19:13.919Z,1.40
2023-05-19T08:22:17.639Z,1.10
2023-05-19T08:25:24.519Z,1.13
2023-05-19T08:28:27.994Z,0.93
2023-05-19T08:31:33.263Z,1.70
2023-05-19T08:34:36.929Z,1.23
2023-05-19T08:37:41.007Z,0.80
2023-05-19T08:40:46.015Z,1.40
2023-05-19T08:43:50.180Z,1.17
2023-05-19T08:46:57.868Z,1.30
2023-05-19T08:50:09.914Z,0.95
2023-05-19T08:53:28.937Z,1.08
2023-05-19T08:56:35.732Z,1.40
2023-05-19T08:59:41.116Z,1.35
2023-05-19T09:02:55.474Z,1.30
2023-05-19T09:06:09.957Z,1.40
2023-05-19T09:09:13.595Z,1.17
2023-05-19T09:12:17.602Z,1.08
2023-05-19T09:15:21.475Z,1.63
2023-05-19T09:18:27.779Z,0.95
2023-05-19T09:21:31.987Z,0.75
2023-05-19T09:24:36.382Z,1.33
2023-05-19T09:27:39.911Z,0.85
2023-05-19T09:30:44.273Z,0.80
2023-05-19T09:33:49.070Z,0.85
2023-05-19T09:36:53.077Z,0.93
2023-05-19T09:39:57.887Z,0.95
2023-05-19T09:43:01.705Z,1.38
2023-05-19T09:46:05.900Z,0.85
2023-05-19T09:49:13.244Z,1.40
2023-05-19T09:52:17.440Z,1.38
2023-05-19T09:55:23.108Z,1.17
2023-05-19T09:58:27.090Z,1.30
2023-05-19T10:01:31.328Z,1.27
2023-05-19T10:04:36.430Z,1.02
2023-05-19T10:07:41.271Z,1.40
2023-05-19T10:10:47.493Z,1.02
2023-05-19T10:13:53.078Z,1.17
2023-05-19T10:16:57.469Z,1.23
2023-05-19T10:20:02.454Z,1.00
2023-05-19T10:23:05.927Z,1.40
2023-05-19T10:26:10.590Z,1.48
2023-05-19T10:29:16.590Z,1.40
2023-05-19T10:32:24.654Z,1.35
2023-05-19T10:35:52.664Z,1.05
2023-05-19T10:39:01.036Z,1.52
2023-05-19T10:42:10.098Z,1.35
2023-05-19T10:45:16.592Z,0.90
2023-05-19T10:48:21.772Z,1.33
2023-05-19T10:51:34.832Z,1.40
2023-05-19T10:54:43.481Z,0.98
2023-05-19T10:57:57.132Z,1.45
2023-05-19T11:01:02.488Z,1.02
2023-05-19T11:04:12.116Z,1.63
2023-05-19T11:07:19.767Z,1.20
2023-05-19T11:10:25.114Z,0.90
2023-05-19T11:13:29.002Z,1.02
2023-05-19T11:16:33.784Z,1.10
2023-05-19T11:19:37.646Z,1.38
2023-05-19T11:22:42.992Z,0.93
2023-05-19T11:25:48.007Z,1.00
2023-05-19T11:28:52.077Z,1.00
2023-05-19T11:31:56.067Z,0.95
2023-05-19T11:34:59.699Z,0.65
2023-05-19T11:38:07.704Z,1.33
2023-05-19T11:41:11.122Z,1.33
2023-05-19T11:44:14.678Z,1.42
2023-05-19T11:47:20.266Z,0.98
2023-05-19T11:50:24.025Z,1.30
2023-05-19T11:53:33.250Z,1.00
2023-05-19T11:56:41.637Z,1.10
2023-05-19T11:59:48.062Z,1.17
2023-05-19T12:02:51.818Z,0.93
2023-05-19T12:05:56.359Z,1.17
2023-05-19T12:09:01.305Z,1.00
2023-05-19T12:12:05.187Z,1.67
2023-05-19T12:15:11.256Z,1.25
2023-05-19T12:18:15.517Z,1.05
2023-05-19T12:21:19.062Z,1.10
2023-05-19T12:24:24.055Z,1.10
2023-05-19T12:27:27.927Z,1.27
2023-05-19T12:30:33.135Z,1.17
2023-05-19T12:33:37.289Z,1.10
2023-05-19T12:36:40.721Z,1.10
2023-05-19T12:39:46.038Z,1.17
2023-05-19T12:42:52.289Z,1.30
2023-05-19T12:45:56.606Z,1.20
2023-05-19T12:49:01.671Z,1.13
2023-05-19T12:52:11.794Z,0.82
2023-05-19T12:55:17.974Z,1.00
2023-05-19T12:58:23.462Z,0.93
2023-05-19T13:01:29.145Z,1.02
2023-05-19T13:04:32.895Z,1.10
2023-05-19T13:07:36.588Z,1.35
2023-05-19T13:10:42.183Z,1.15
2023-05-19T13:13:47.091Z,1.17
2023-05-19T13:16:50.721Z,1.08
2023-05-19T13:19:54.438Z,0.98
2023-05-19T13:23:10.139Z,1.05
2023-05-19T13:26:16.328Z,1.10
2023-05-19T13:29:24.216Z,0.85
2023-05-19T13:32:28.687Z,0.85
2023-05-19T13:35:37.192Z,1.33
2023-05-19T13:38:41.948Z,1.10
2023-05-19T13:41:49.605Z,0.93
2023-05-19T13:44:56.494Z,1.10
2023-05-19T13:48:00.061Z,1.23
2023-05-19T13:51:03.926Z,1.17
2023-05-19T13:54:08.519Z,1.30
2023-05-19T13:57:14.524Z,1.60
2023-05-19T14:00:19.100Z,0.98
2023-05-19T14:03:24.865Z,1.25
2023-05-19T14:06:29.094Z,1.35
2023-05-19T14:09:32.873Z,0.80
2023-05-19T14:12:52.825Z,1.40
2023-05-19T14:16:03.173Z,1.55
2023-05-19T14:19:06.809Z,1.02
2023-05-19T14:22:14.180Z,1.30
2023-05-19T14:25:27.294Z,0.95
2023-05-19T14:28:32.777Z,1.00
2023-05-19T14:31:36.805Z,0.85
2023-05-19T14:34:40.325Z,1.17
2023-05-19T14:37:44.381Z,1.35
2023-05-19T14:40:48.618Z,1.02
2023-05-19T14:43:53.442Z,1.20
2023-05-19T14:46:57.406Z,1.27
2023-05-19T14:50:00.975Z,1.13
2023-05-19T14:53:07.963Z,0.85
2023-05-19T14:56:11.821Z,0.80
2023-05-19T14:59:16.963Z,1.23
2023-05-19T15:02:20.628Z,1.15
2023-05-19T15:05:25.292Z,1.10
2023-05-19T15:08:34.941Z,1.10
2023-05-19T15:11:38.463Z,1.10
2023-05-19T15:14:43.378Z,1.50
2023-05-19T15:17:47.881Z,0.90
2023-05-19T15:20:51.829Z,1.20
2023-05-19T15:23:55.463Z,0.80
2023-05-19T15:26:59.061Z,1.13
2023-05-19T15:30:08.329Z,0.82
2023-05-19T15:33:12.834Z,1.08
2023-05-19T15:36:17.219Z,0.90
2023-05-19T15:39:31.614Z,1.05
2023-05-19T15:42:36.225Z,0.95
2023-05-19T15:45:41.333Z,0.98
2023-05-19T15:48:45.034Z,0.80
2023-05-19T15:51:48.424Z,1.63
2023-05-19T15:54:52.400Z,1.00
2023-05-19T15:57:56.017Z,1.00
2023-05-19T16:01:00.956Z,0.68
2023-05-19T16:04:07.962Z,1.05
2023-05-19T16:07:15.536Z,1.17
2023-05-19T16:10:19.522Z,0.80
2023-05-19T16:13:23.199Z,0.85
2023-05-19T16:16:29.390Z,1.00
2023-05-19T16:19:36.387Z,1.10
2023-05-19T16:22:39.827Z,1.52
2023-05-19T16:25:43.875Z,0.90
2023-05-19T16:28:47.647Z,0.90
2023-05-19T16:32:06.921Z,0.73
2023-05-19T16:35:11.173Z,0.90
2023-05-19T16:38:15.099Z,1.20
2023-05-19T16:41:19.916Z,1.02
2023-05-19T16:44:24.569Z,0.75
2023-05-19T16:47:29.714Z,1.10
2023-05-19T16:50:33.828Z,0.95
2023-05-19T16:53:37.632Z,1.08
2023-05-19T16:56:41.566Z,1.30
2023-05-19T16:59:45.213Z,1.10
2023-05-19T17:02:53.228Z,1.00
2023-05-19T17:05:57.023Z,0.98
2023-05-19T17:09:00.671Z,1.10
2023-05-19T17:12:04.256Z,1.02
2023-05-19T17:15:09.024Z,1.10
2023-05-19T17:18:16.254Z,0.80
2023-05-19T17:21:27.624Z,0.90
2023-05-19T17:24:33.349Z,1.30
2023-05-19T17:27:51.500Z,1.00
2023-05-19T17:31:11.080Z,0.90
2023-05-19T17:34:16.101Z,1.08
2023-05-19T17:37:23.387Z,1.05
2023-05-19T17:40:27.385Z,0.80
2023-05-19T17:43:34.806Z,1.20
2023-05-19T17:46:39.308Z,1.02
2023-05-19T17:49:47.946Z,0.95
2023-05-19T17:52:52.408Z,0.80
2023-05-19T17:56:00.458Z,1.05
2023-05-19T17:59:04.132Z,0.80
2023-05-19T18:02:08.916Z,0.80
2023-05-19T18:05:15.802Z,1.00
2023-05-19T18:08:20.232Z,0.98
2023-05-19T18:11:24.105Z,0.82
2023-05-19T18:14:37.869Z,0.90
2023-05-19T18:17:41.377Z,1.00
2023-05-19T18:20:46.673Z,1.00
2023-05-19T18:23:50.400Z,0.98
2023-05-19T18:26:53.871Z,0.95
2023-05-19T18:29:57.741Z,1.05
2023-05-19T18:33:04.055Z,0.93
2023-05-19T18:36:09.908Z,0.80
2023-05-19T18:39:13.560Z,0.88
2023-05-19T18:42:17.155Z,1.10
2023-05-19T18:45:22.029Z,1.00
2023-05-19T18:48:26.869Z,0.90
2023-05-19T18:51:33.249Z,0.70
2023-05-19T18:54:37.546Z,0.95
2023-05-19T18:57:44.993Z,0.77
2023-05-19T19:00:48.978Z,0.80
2023-05-19T19:03:52.777Z,0.80
2023-05-19T19:06:59.705Z,0.88
2023-05-19T19:10:03.362Z,0.90
2023-05-19T19:13:06.884Z,0.93
2023-05-19T19:16:10.536Z,0.70
2023-05-19T19:19:14.309Z,0.75
2023-05-19T19:22:19.895Z,1.00
2023-05-19T19:25:23.849Z,0.93
2023-05-19T19:28:27.732Z,0.98
2023-05-19T19:31:31.273Z,0.80
2023-05-19T19:34:35.054Z,1.00
2023-05-19T19:37:44.379Z,0.70
2023-05-19T19:40:48.758Z,0.80
2023-05-19T19:43:52.982Z,0.65
2023-05-19T19:46:57.941Z,0.70
2023-05-19T19:50:05.441Z,1.10
2023-05-19T19:53:12.205Z,0.60
2023-05-19T19:56:15.666Z,0.70
2023-05-19T19:59:19.271Z,0.90
2023-05-19T20:02:23.102Z,0.80
2023-05-19T20:05:26.592Z,0.70
2023-05-19T20:08:31.682Z,0.93
2023-05-19T20:11:35.437Z,0.90
2023-05-19T20:14:42.189Z,0.90
2023-05-19T20:17:49.903Z,1.08
2023-05-19T20:20:54.611Z,1.15
2023-05-19T20:24:00.522Z,0.93
2023-05-19T20:27:05.002Z,1.30
2023-05-19T20:30:09.412Z,1.13
2023-05-19T20:33:12.964Z,1.00
2023-05-19T20:36:16.747Z,0.90
2023-05-19T20:39:22.735Z,1.10
2023-05-19T20:42:26.615Z,1.63
2023-05-19T20:45:30.726Z,0.90
2023-05-19T20:48:34.437Z,0.80
2023-05-19T20:51:38.100Z,0.88
2023-05-19T20:54:48.600Z,0.73
2023-05-19T20:57:52.274Z,0.85
2023-05-19T21:01:01.529Z,0.60
2023-05-19T21:04:07.869Z,0.85
2023-05-19T21:07:14.693Z,0.77
2023-05-19T21:10:20.877Z,0.70
2023-05-19T21:13:24.496Z,0.70
2023-05-19T21:16:28.083Z,0.60
2023-05-19T21:19:34.056Z,0.80
2023-05-19T21:22:37.704Z,0.82
2023-05-19T21:25:45.141Z,0.80
2023-05-19T21:28:52.449Z,0.70
2023-05-19T21:32:06.538Z,0.85
2023-05-19T21:35:13.836Z,0.80
2023-05-19T21:38:23.770Z,0.60
2023-05-19T21:41:31.261Z,0.55
2023-05-19T21:44:35.483Z,0.45
2023-05-19T21:47:41.583Z,0.80
2023-05-19T21:50:46.343Z,0.77
2023-05-19T21:53:50.015Z,0.80
2023-05-19T21:56:57.872Z,0.60
2023-05-19T22:00:02.245Z,0.80
2023-05-19T22:03:15.522Z,0.70
2023-05-19T22:06:19.396Z,0.68
2023-05-19T22:09:23.339Z,0.85
2023-05-19T22:12:29.183Z,0.80
2023-05-19T22:15:32.491Z,0.68
2023-05-19T22:18:36.398Z,0.85
2023-05-19T22:21:40.184Z,0.80
2023-05-19T22:24:43.992Z,0.75
2023-05-19T22:27:49.151Z,0.80
2023-05-19T22:30:52.753Z,0.75
2023-05-19T22:33:56.516Z,0.60
2023-05-19T22:37:00.174Z,0.70
2023-05-19T22:40:03.997Z,0.75
2023-05-19T22:43:08.988Z,0.70
2023-05-19T22:46:12.848Z,0.68
2023-05-19T22:49:16.822Z,0.60
2023-05-19T22:52:20.667Z,0.82
2023-05-19T22:55:24.305Z,0.77
2023-05-19T22:58:29.509Z,0.60
2023-05-19T23:01:33.578Z,0.70
2023-05-19T23:04:37.911Z,0.60
2023-05-19T23:07:42.053Z,0.68
2023-05-19T23:10:46.282Z,0.77
2023-05-19T23:13:51.437Z,0.80
2023-05-19T23:16:55.094Z,0.70
2023-05-19T23:19:59.036Z,0.60
2023-05-19T23:23:03.734Z,0.80
2023-05-19T23:26:08.755Z,0.63
2023-05-19T23:29:15.068Z,0.82
2023-05-19T23:32:22.459Z,0.90
2023-05-19T23:35:26.665Z,0.65
2023-05-19T23:38:30.479Z,0.70
2023-05-19T23:41:34.031Z,0.80
2023-05-19T23:44:41.402Z,0.88
2023-05-19T23:47:45.874Z,0.70
2023-05-19T23:50:49.573Z,1.00
2023-05-19T23:53:53.257Z,0.77
2023-05-19T23:56:57.142Z,0.47
